Time;durP1;ratioP1;P1;durP2;ratioP2;P2;SDS_P1;SDS_P2;PMS_P1;PMS_P2;Temp;Humidity;BMP_temperature;BMP_pressure;BME280_temperature;BME280_humidity;BME280_pressure;Samples;Min_cycle;Max_cycle;Signal;HPM_P1;HPM_P2
2022/08/16 00:01:53;;;;;;;11.98;10.73;;;;;;;21.92;78.01;94235.78;5029715;28;20290;-83
2022/08/16 00:04:21;;;;;;;11.00;9.82;;;;;;;21.94;78.31;94251.22;5029200;28;20606;-83
2022/08/16 00:06:49;;;;;;;12.48;10.10;;;;;;;21.91;78.61;94247.22;5029268;28;20578;-83
2022/08/16 00:09:16;;;;;;;11.05;10.02;;;;;;;21.90;79.08;94250.06;5029412;28;20195;-84
2022/08/16 00:11:45;;;;;;;12.02;10.57;;;;;;;21.86;79.24;94251.50;5029607;28;20647;-84
2022/08/16 00:14:16;;;;;;;11.40;10.20;;;;;;;21.84;79.34;94241.28;5029575;28;20199;-83
2022/08/16 00:16:43;;;;;;;13.32;10.70;;;;;;;21.81;79.50;94240.97;5029459;28;20215;-84
2022/08/16 00:19:11;;;;;;;11.73;10.38;;;;;;;21.70;79.68;94227.66;5029517;28;20571;-84
2022/08/16 00:21:37;;;;;;;11.00;9.98;;;;;;;21.78;79.76;94240.38;5029020;28;20749;-81
2022/08/16 00:24:06;;;;;;;11.20;9.75;;;;;;;21.76;79.69;94237.22;5032641;28;20191;-82
2022/08/16 00:26:33;;;;;;;14.63;10.75;;;;;;;21.73;79.78;94240.22;5033461;28;20191;-84
2022/08/16 00:29:00;;;;;;;12.88;9.95;;;;;;;21.67;79.91;94237.69;5033290;28;20570;-83
2022/08/16 00:31:27;;;;;;;15.80;10.32;;;;;;;21.46;80.59;94218.91;5033232;28;20643;-83
2022/08/16 00:33:53;;;;;;;15.73;10.25;;;;;;;21.62;80.14;94237.56;5033673;28;20196;-83
2022/08/16 00:36:20;;;;;;;11.13;9.90;;;;;;;21.64;80.74;94251.94;5033124;28;20260;-82
2022/08/16 00:38:47;;;;;;;11.68;9.82;;;;;;;21.64;80.36;94249.34;5033984;28;20631;-86
2022/08/16 00:41:15;;;;;;;11.10;10.00;;;;;;;21.66;80.33;94251.72;5033791;28;20187;-82
2022/08/16 00:43:42;;;;;;;10.50;9.45;;;;;;;21.65;80.38;94256.13;5033421;28;20202;-82
2022/08/16 00:46:13;;;;;;;12.35;9.82;;;;;;;21.63;80.73;94254.75;5033153;28;20206;-82
2022/08/16 00:48:43;;;;;;;10.20;9.10;;;;;;;21.41;80.65;94233.56;5033120;28;20195;-82
2022/08/16 00:51:10;;;;;;;11.20;10.05;;;;;;;21.61;81.05;94281.00;5032617;28;20195;-82
2022/08/16 00:53:37;;;;;;;15.38;10.73;;;;;;;21.63;81.04;94275.56;5033267;28;20199;-81
2022/08/16 00:56:08;;;;;;;11.07;10.07;;;;;;;21.64;80.75;94274.56;5033210;28;20211;-79
2022/08/16 00:58:38;;;;;;;11.65;10.48;;;;;;;21.53;81.31;94270.88;5033166;28;20188;-84
2022/08/16 01:01:07;;;;;;;11.93;10.70;;;;;;;21.58;81.28;94267.63;5032840;28;20219;-82
2022/08/16 01:03:36;;;;;;;12.80;10.95;;;;;;;21.61;81.21;94280.22;5032264;28;20278;-83
2022/08/16 01:06:05;;;;;;;10.40;9.45;;;;;;;21.58;81.15;94276.22;5032891;28;20297;-84
2022/08/16 01:08:34;;;;;;;11.18;9.98;;;;;;;21.57;81.66;94279.03;5032858;28;20711;-83
2022/08/16 01:11:02;;;;;;;11.35;10.15;;;;;;;21.36;81.68;94247.22;5032800;28;20188;-84
2022/08/16 01:13:32;;;;;;;12.85;10.30;;;;;;;21.60;81.52;94282.03;5032689;28;20193;-85
2022/08/16 01:16:05;;;;;;;11.57;10.38;;;;;;;21.44;82.12;94259.16;5032696;28;20184;-85
2022/08/16 01:18:35;;;;;;;11.40;10.30;;;;;;;21.51;82.07;94280.72;5032488;28;20203;-83
2022/08/16 01:21:16;;;;;;;12.75;11.40;;;;;;;21.67;81.72;94294.94;5032820;28;20200;-83
2022/08/16 01:23:58;;;;;;;11.57;10.38;;;;;;;21.66;81.33;94298.56;5032128;28;20188;-81
2022/08/16 01:26:30;;;;;;;12.13;10.88;;;;;;;21.59;81.27;94296.03;5032592;28;20183;-83
2022/08/16 01:28:59;;;;;;;13.75;11.38;;;;;;;21.50;81.73;94284.31;5032145;28;20227;-84
2022/08/16 01:31:27;;;;;;;12.70;10.90;;;;;;;21.56;81.49;94290.47;5031681;28;20204;-81
2022/08/16 01:33:55;;;;;;;11.68;10.45;;;;;;;21.55;81.67;94300.09;5030913;28;20184;-81
2022/08/16 01:36:22;;;;;;;12.32;11.10;;;;;;;21.56;81.50;94290.47;5031457;28;20235;-80
2022/08/16 01:38:51;;;;;;;12.23;9.70;;;;;;;21.50;81.43;94292.94;5031798;28;20262;-82
2022/08/16 01:41:20;;;;;;;13.25;11.88;;;;;;;21.49;81.58;94293.13;5031758;28;20196;-82
2022/08/16 01:43:48;;;;;;;11.82;10.63;;;;;;;21.50;81.73;94300.72;5031652;28;20199;-85
2022/08/16 01:46:22;;;;;;;19.67;10.73;;;;;;;21.48;81.97;94296.75;5031516;28;20667;-82
2022/08/16 01:48:53;;;;;;;12.70;10.18;;;;;;;21.26;81.81;94267.69;5031939;28;20196;-82
2022/08/16 01:51:22;;;;;;;12.32;11.02;;;;;;;21.46;82.22;94298.75;5031827;28;20203;-81
2022/08/16 01:53:48;;;;;;;11.65;10.45;;;;;;;21.48;82.03;94297.53;5031707;28;20192;-83
2022/08/16 01:56:17;;;;;;;12.32;11.02;;;;;;;21.48;82.35;94299.34;5031379;28;20194;-83
2022/08/16 01:58:44;;;;;;;12.10;10.95;;;;;;;21.49;82.56;94299.13;5031660;28;20200;-85
2022/08/16 02:01:11;;;;;;;13.15;11.05;;;;;;;21.35;82.09;94258.63;5031580;28;20598;-85
2022/08/16 02:03:38;;;;;;;12.68;10.93;;;;;;;21.47;82.08;94305.56;5031166;28;20202;-84
2022/08/16 02:06:06;;;;;;;14.73;12.15;;;;;;;21.51;81.74;94311.94;5031387;28;20195;-82
2022/08/16 02:08:33;;;;;;;13.93;12.15;;;;;;;21.36;82.41;94316.66;5031466;28;20211;-82
2022/08/16 02:11:01;;;;;;;12.68;11.25;;;;;;;21.38;82.61;94323.25;5031268;28;20634;-82
2022/08/16 02:13:29;;;;;;;15.25;12.52;;;;;;;21.37;82.76;94326.03;5031607;28;20188;-83
2022/08/16 02:15:56;;;;;;;14.35;11.07;;;;;;;21.44;82.41;94338.00;5031636;28;20223;-85
2022/08/16 02:18:23;;;;;;;14.68;12.32;;;;;;;21.46;82.55;94353.38;5031311;28;20227;-82
2022/08/16 02:20:53;;;;;;;16.95;11.48;;;;;;;21.25;82.30;94331.94;5032382;28;20195;-85
2022/08/16 02:23:20;;;;;;;15.13;12.50;;;;;;;21.38;82.82;94354.47;5030592;28;20686;-80
2022/08/16 02:25:48;;;;;;;11.93;10.80;;;;;;;21.39;82.18;94371.66;5031080;28;20562;-80
2022/08/16 02:28:15;;;;;;;11.38;10.27;;;;;;;21.35;82.04;94367.09;5031048;28;20183;-83
2022/08/16 02:30:44;;;;;;;12.63;11.27;;;;;;;21.36;82.02;94366.09;5030983;28;20184;-83
2022/08/16 02:33:11;;;;;;;11.70;10.60;;;;;;;21.27;81.67;94362.91;5031227;28;20250;-80
2022/08/16 02:35:39;;;;;;;12.15;10.20;;;;;;;21.33;81.42;94375.13;5030979;28;20676;-82
2022/08/16 02:38:07;;;;;;;11.25;10.25;;;;;;;21.33;80.95;94376.91;5031054;28;20230;-83
2022/08/16 02:40:34;;;;;;;13.35;10.55;;;;;;;21.23;80.98;94377.34;5030857;28;20219;-81
2022/08/16 02:43:01;;;;;;;14.68;11.10;;;;;;;21.18;81.16;94366.78;5030794;28;20279;-81
2022/08/16 02:45:28;;;;;;;10.90;9.70;;;;;;;21.28;81.42;94367.91;5030505;28;20192;-83
2022/08/16 02:47:57;;;;;;;11.45;10.35;;;;;;;21.20;82.29;94376.00;5030470;28;20197;-82
2022/08/16 02:50:24;;;;;;;11.52;10.30;;;;;;;21.20;82.90;94368.19;5030187;28;20241;-82
2022/08/16 02:52:53;;;;;;;16.70;10.65;;;;;;;21.25;82.74;94370.16;5030474;28;20194;-81
2022/08/16 02:55:20;;;;;;;11.93;10.07;;;;;;;21.30;83.13;94359.91;5030049;28;20664;-81
2022/08/16 02:57:47;;;;;;;11.15;9.98;;;;;;;21.16;83.53;94335.81;5030599;28;20243;-83
2022/08/16 03:00:16;;;;;;;12.52;9.95;;;;;;;21.10;83.85;94328.84;5030194;28;20196;-83
2022/08/16 03:02:44;;;;;;;11.98;10.55;;;;;;;21.01;84.03;94312.69;5030324;28;20204;-82
2022/08/16 03:05:14;;;;;;;17.33;11.02;;;;;;;21.24;84.26;94350.34;5030257;28;20261;-79
2022/08/16 03:07:43;;;;;;;11.15;10.10;;;;;;;21.25;84.15;94338.94;5030312;28;20583;-83
2022/08/16 03:10:12;;;;;;;11.50;10.30;;;;;;;21.25;83.99;94334.53;5030240;28;20206;-83
2022/08/16 03:12:39;;;;;;;11.48;10.30;;;;;;;21.27;83.77;94327.28;5030505;28;20188;-79
2022/08/16 03:15:08;;;;;;;10.40;9.40;;;;;;;21.23;83.95;94325.34;5030137;28;20194;-82
2022/08/16 03:17:35;;;;;;;18.48;9.48;;;;;;;21.20;83.18;94303.16;5030121;28;20219;-81
2022/08/16 03:20:03;;;;;;;10.52;9.52;;;;;;;21.29;83.11;94317.50;5029827;28;20733;-84
2022/08/16 03:22:31;;;;;;;12.55;10.63;;;;;;;21.28;83.26;94308.06;5030152;28;20299;-83
2022/08/16 03:25:00;;;;;;;10.93;9.73;;;;;;;21.25;83.72;94308.53;5030225;28;20183;-81
2022/08/16 03:27:27;;;;;;;11.02;10.02;;;;;;;21.25;84.02;94313.72;5030223;28;20180;-83
2022/08/16 03:29:54;;;;;;;11.38;9.93;;;;;;;21.07;84.50;94292.06;5030201;28;20199;-83
2022/08/16 03:32:21;;;;;;;13.52;9.77;;;;;;;21.25;83.83;94312.94;5030227;28;20184;-82
2022/08/16 03:34:48;;;;;;;10.80;9.70;;;;;;;21.35;84.04;94310.66;5030234;28;20682;-81
2022/08/16 03:37:15;;;;;;;12.80;10.15;;;;;;;21.30;84.31;94321.69;5029269;28;20238;-82
2022/08/16 03:39:43;;;;;;;13.80;10.07;;;;;;;21.21;84.80;94319.56;5030002;28;20650;-81
2022/08/16 03:42:10;;;;;;;12.20;10.60;;;;;;;21.16;85.79;94324.63;5029817;28;20203;-82
2022/08/16 03:44:37;;;;;;;14.48;11.27;;;;;;;21.12;86.05;94324.22;5030230;28;20199;-80
2022/08/16 03:47:04;;;;;;;11.05;10.05;;;;;;;21.10;86.27;94323.63;5034029;28;20188;-82
2022/08/16 03:49:31;;;;;;;11.82;10.18;;;;;;;21.00;86.64;94312.91;5032511;28;20196;-80
2022/08/16 03:51:58;;;;;;;14.38;10.30;;;;;;;21.04;86.43;94325.28;5031913;28;20223;-84
2022/08/16 03:54:24;;;;;;;11.23;10.10;;;;;;;21.08;86.61;94324.88;5032018;28;20192;-84
2022/08/16 03:56:53;;;;;;;11.75;10.43;;;;;;;20.90;86.40;94294.41;5031014;28;20192;-84
2022/08/16 03:59:20;;;;;;;11.80;10.68;;;;;;;21.13;85.57;94320.63;5029286;28;20195;-84
2022/08/16 04:01:46;;;;;;;13.13;9.93;;;;;;;21.05;85.26;94308.66;5029397;28;20270;-83
2022/08/16 04:04:13;;;;;;;12.55;10.45;;;;;;;21.23;84.90;94335.75;5028917;28;20203;-83
2022/08/16 04:06:40;;;;;;;10.82;9.73;;;;;;;21.10;85.74;94308.03;5029060;28;20572;-82
2022/08/16 04:09:07;;;;;;;10.93;9.82;;;;;;;21.25;85.55;94328.53;5028836;28;20192;-80
2022/08/16 04:11:34;;;;;;;11.93;10.73;;;;;;;21.25;85.64;94321.53;5029483;28;20203;-82
2022/08/16 04:14:02;;;;;;;11.25;10.20;;;;;;;21.22;85.85;94315.94;5028989;28;20198;-82
2022/08/16 04:16:31;;;;;;;11.13;9.98;;;;;;;21.24;86.63;94316.50;5029393;28;20203;-79
2022/08/16 04:18:57;;;;;;;11.98;10.77;;;;;;;21.26;86.22;94319.72;5028749;28;20223;-83
2022/08/16 04:21:24;;;;;;;13.27;11.38;;;;;;;21.26;86.52;94317.13;5029166;28;20199;-82
2022/08/16 04:23:51;;;;;;;11.60;9.73;;;;;;;21.18;86.74;94304.38;5028712;28;20674;-80
2022/08/16 04:26:18;;;;;;;11.13;10.02;;;;;;;21.23;86.44;94302.72;5029483;28;20195;-80
2022/08/16 04:28:45;;;;;;;12.18;10.95;;;;;;;21.25;85.83;94311.13;5030613;28;20195;-81
2022/08/16 04:31:13;;;;;;;12.73;10.65;;;;;;;21.31;85.88;94319.88;5031613;28;20300;-83
2022/08/16 04:33:40;;;;;;;13.70;10.63;;;;;;;21.33;85.76;94317.91;5033147;28;20635;-80
2022/08/16 04:36:08;;;;;;;11.90;10.43;;;;;;;21.03;86.69;94287.28;5033142;28;20238;-82
2022/08/16 04:38:35;;;;;;;12.43;11.20;;;;;;;21.34;85.85;94323.91;5032304;28;20220;-81
2022/08/16 04:41:02;;;;;;;13.05;10.82;;;;;;;21.45;85.38;94323.19;5031273;28;20555;-81
2022/08/16 04:43:29;;;;;;;11.90;10.70;;;;;;;21.61;84.67;94308.84;5031266;28;20191;-82
2022/08/16 04:45:56;;;;;;;12.18;10.88;;;;;;;21.58;84.79;94312.66;5029406;28;20202;-79
2022/08/16 04:48:24;;;;;;;11.32;10.20;;;;;;;21.68;84.22;94314.78;5029490;28;20227;-82
2022/08/16 04:50:51;;;;;;;12.45;11.07;;;;;;;21.74;85.14;94326.91;5029405;28;20203;-83
2022/08/16 04:53:18;;;;;;;14.48;12.55;;;;;;;21.63;87.25;94331.03;5029880;28;20582;-81
2022/08/16 04:55:45;;;;;;;15.82;14.02;;;;;;;21.71;88.43;94335.16;5029343;28;20202;-82
2022/08/16 04:58:12;;;;;;;18.98;12.80;;;;;;;21.80;87.82;94326.03;5028893;28;20219;-82
2022/08/16 05:00:40;;;;;;;14.57;13.18;;;;;;;21.85;86.80;94334.03;5028561;28;20192;-83
2022/08/16 05:03:10;;;;;;;16.33;12.40;;;;;;;21.95;86.17;94342.13;5028606;28;20200;-81
2022/08/16 05:05:41;;;;;;;14.98;13.07;;;;;;;22.09;85.44;94352.41;5028710;28;20200;-82
2022/08/16 05:08:08;;;;;;;17.85;12.85;;;;;;;22.25;83.29;94346.63;5029112;28;20618;-83
2022/08/16 05:10:36;;;;;;;15.52;13.38;;;;;;;22.31;83.71;94347.56;5032359;28;20195;-82
2022/08/16 05:13:05;;;;;;;14.35;12.85;;;;;;;22.44;82.81;94350.00;5032126;28;20191;-83
2022/08/16 05:15:32;;;;;;;20.42;13.23;;;;;;;22.62;82.00;94343.97;5032017;28;20191;-80
2022/08/16 05:17:59;;;;;;;14.63;12.20;;;;;;;22.75;80.29;94346.41;5032227;28;20215;-80
2022/08/16 05:20:27;;;;;;;11.88;10.68;;;;;;;22.82;80.65;94349.72;5031936;28;20585;-81
2022/08/16 05:22:55;;;;;;;13.10;11.68;;;;;;;22.97;79.04;94354.56;5032146;28;20234;-82
2022/08/16 05:25:22;;;;;;;11.60;10.40;;;;;;;23.03;79.31;94357.06;5032385;28;20209;-84
2022/08/16 05:27:50;;;;;;;12.07;10.88;;;;;;;23.25;78.55;94359.16;5032304;28;20210;-83
2022/08/16 05:30:18;;;;;;;13.85;11.88;;;;;;;23.39;77.05;94354.53;5032130;28;20200;-83
2022/08/16 05:32:45;;;;;;;16.55;11.13;;;;;;;23.52;76.85;94357.72;5030097;28;20192;-82
2022/08/16 05:35:13;;;;;;;14.75;11.25;;;;;;;23.68;77.29;94345.06;5031770;28;20570;-83
2022/08/16 05:37:41;;;;;;;12.10;10.93;;;;;;;23.82;75.26;94343.00;5031855;28;20231;-83
2022/08/16 05:40:12;;;;;;;13.27;11.18;;;;;;;23.95;74.93;94340.94;5032207;28;20188;-83
2022/08/16 05:42:39;;;;;;;14.38;12.90;;;;;;;24.00;75.39;94342.88;5032281;28;20210;-83
2022/08/16 05:45:07;;;;;;;16.65;11.95;;;;;;;24.07;75.54;94345.38;5032302;28;20306;-84
2022/08/16 05:47:35;;;;;;;15.90;14.07;;;;;;;24.01;75.53;94334.03;5032033;28;20372;-84
2022/08/16 05:50:02;;;;;;;14.75;12.85;;;;;;;24.23;76.23;94349.88;5032445;28;20184;-83
2022/08/16 05:52:29;;;;;;;15.35;12.27;;;;;;;24.53;75.73;94345.28;5033192;28;20571;-83
2022/08/16 05:54:55;;;;;;;17.65;12.50;;;;;;;24.75;74.15;94347.25;5031769;28;20204;-85
2022/08/16 05:57:24;;;;;;;14.00;11.43;;;;;;;24.92;72.90;94342.84;5031643;28;20228;-81
2022/08/16 05:59:51;;;;;;;12.00;10.73;;;;;;;24.99;72.07;94325.16;5031656;28;20623;-83
2022/08/16 06:02:20;;;;;;;15.45;11.38;;;;;;;25.32;70.73;94349.03;5031209;28;20187;-83
2022/08/16 06:04:47;;;;;;;12.30;10.18;;;;;;;25.39;70.95;94332.16;5031105;28;20625;-83
2022/08/16 06:07:14;;;;;;;11.98;10.73;;;;;;;25.60;68.26;94361.25;5031558;28;20294;-83
2022/08/16 06:09:41;;;;;;;12.20;11.00;;;;;;;25.64;69.23;94357.91;5031435;28;20192;-82
2022/08/16 06:12:09;;;;;;;11.85;10.20;;;;;;;25.85;69.06;94353.78;5031283;28;20184;-80
2022/08/16 06:14:37;;;;;;;11.90;9.88;;;;;;;26.07;67.84;94358.28;5030912;28;20187;-83
2022/08/16 06:17:05;;;;;;;12.55;11.25;;;;;;;26.01;67.11;94347.72;5031233;28;20395;-82
2022/08/16 06:19:32;;;;;;;12.68;11.35;;;;;;;26.09;66.03;94358.84;5030897;28;20219;-84
2022/08/16 06:21:59;;;;;;;15.38;11.77;;;;;;;26.02;66.29;94338.81;5030419;28;20213;-81
2022/08/16 06:24:26;;;;;;;11.65;10.45;;;;;;;26.21;66.42;94354.28;5031123;28;20192;-83
2022/08/16 06:26:53;;;;;;;13.32;10.68;;;;;;;26.42;66.30;94361.31;5032134;28;20231;-84
2022/08/16 06:29:19;;;;;;;13.82;12.07;;;;;;;26.54;65.04;94344.72;5031153;28;20195;-84
2022/08/16 06:31:48;;;;;;;10.68;9.68;;;;;;;26.80;65.77;94348.41;5031581;28;20192;-81
2022/08/16 06:34:15;;;;;;;11.32;9.70;;;;;;;26.98;64.23;94343.59;5030467;28;20188;-82
2022/08/16 06:36:42;;;;;;;13.02;11.50;;;;;;;27.06;63.66;94338.94;5030891;28;20722;-84
2022/08/16 06:39:09;;;;;;;11.90;10.70;;;;;;;27.17;63.55;94332.78;5030917;28;20223;-85
2022/08/16 06:41:35;;;;;;;11.98;10.77;;;;;;;27.21;62.00;94347.78;5030761;28;20207;-80
2022/08/16 06:44:03;;;;;;;15.50;12.55;;;;;;;27.26;62.97;94344.41;5030896;28;20198;-80
2022/08/16 06:46:33;;;;;;;15.05;11.63;;;;;;;27.10;62.13;94332.97;5031144;28;20194;-81
2022/08/16 06:49:02;;;;;;;14.50;11.07;;;;;;;27.21;61.17;94318.91;5031034;28;20183;-81
2022/08/16 06:51:29;;;;;;;13.70;11.45;;;;;;;27.15;61.40;94319.88;5030484;28;20195;-83
2022/08/16 06:53:56;;;;;;;15.35;11.65;;;;;;;27.20;61.37;94332.25;5030885;28;20200;-81
2022/08/16 06:56:23;;;;;;;14.93;10.93;;;;;;;27.25;62.13;94316.56;5030720;28;20207;-83
2022/08/16 06:58:51;;;;;;;12.43;11.02;;;;;;;27.43;61.35;94328.53;5030535;28;20231;-82
2022/08/16 07:01:18;;;;;;;17.80;11.13;;;;;;;27.48;61.32;94324.09;5030253;28;20658;-80
2022/08/16 07:03:45;;;;;;;12.38;11.07;;;;;;;27.64;62.02;94314.50;5030622;28;20674;-82
2022/08/16 07:06:14;;;;;;;13.10;11.15;;;;;;;27.59;61.56;94284.75;5030687;28;20253;-82
2022/08/16 07:08:41;;;;;;;14.90;11.55;;;;;;;27.93;61.47;94309.69;5030876;28;20230;-81
2022/08/16 07:11:09;;;;;;;11.50;10.35;;;;;;;28.19;61.19;94320.31;5030605;28;20219;-84
2022/08/16 07:13:36;;;;;;;13.73;10.13;;;;;;;28.38;59.82;94310.97;5030309;28;20586;-83
2022/08/16 07:16:05;;;;;;;13.05;9.70;;;;;;;28.61;59.17;94316.81;5030482;28;20644;-82
2022/08/16 07:18:32;;;;;;;12.23;10.63;;;;;;;28.67;58.10;94294.72;5030014;28;20289;-82
2022/08/16 07:20:59;;;;;;;14.75;11.18;;;;;;;28.84;57.02;94305.81;5029996;28;20275;-82
2022/08/16 07:23:27;;;;;;;13.27;9.90;;;;;;;28.73;57.42;94302.38;5030484;28;20196;-82
2022/08/16 07:25:55;;;;;;;12.05;10.27;;;;;;;28.76;57.41;94293.19;5030113;28;20195;-80
2022/08/16 07:28:22;;;;;;;15.32;9.73;;;;;;;28.82;57.45;94293.97;5030474;28;20190;-80
2022/08/16 07:30:49;;;;;;;10.82;9.43;;;;;;;28.97;57.84;94296.63;5030278;28;20203;-79
2022/08/16 07:33:16;;;;;;;11.45;10.02;;;;;;;29.17;56.77;94309.81;5029222;28;20201;-83
2022/08/16 07:35:44;;;;;;;11.75;10.48;;;;;;;29.36;56.62;94302.19;5029893;28;20250;-82
2022/08/16 07:38:11;;;;;;;15.45;10.52;;;;;;;29.54;55.67;94302.72;5029513;28;20227;-83
2022/08/16 07:40:40;;;;;;;13.82;11.68;;;;;;;29.57;55.26;94296.91;5029569;28;20682;-82
2022/08/16 07:43:07;;;;;;;11.45;10.20;;;;;;;29.48;55.51;94299.28;5029826;28;20192;-81
2022/08/16 07:45:34;;;;;;;15.45;9.90;;;;;;;29.19;55.59;94291.94;5029695;28;20199;-86
2022/08/16 07:48:01;;;;;;;9.77;8.82;;;;;;;29.35;56.00;94312.97;5029929;28;20188;-81
2022/08/16 07:50:28;;;;;;;10.82;9.68;;;;;;;29.50;56.34;94310.34;5029642;28;20200;-84
2022/08/16 07:52:55;;;;;;;10.50;9.40;;;;;;;29.65;56.24;94302.44;5029446;28;20197;-84
2022/08/16 07:55:22;;;;;;;12.60;9.60;;;;;;;29.72;54.87;94302.97;5029355;28;20201;-83
2022/08/16 07:57:50;;;;;;;17.30;9.90;;;;;;;29.69;56.14;94307.97;5029616;28;20199;-82
2022/08/16 08:00:17;;;;;;;11.38;8.80;;;;;;;29.66;55.47;94311.13;5029299;28;20721;-83
2022/08/16 08:02:46;;;;;;;10.32;8.88;;;;;;;29.58;55.27;94285.31;5029967;28;20202;-83
2022/08/16 08:05:13;;;;;;;10.75;8.23;;;;;;;29.56;54.76;94288.22;5029393;28;20214;-83
2022/08/16 08:07:40;;;;;;;9.70;7.97;;;;;;;29.79;54.42;94315.84;5029293;28;20627;-81
2022/08/16 08:10:08;;;;;;;12.40;8.85;;;;;;;29.80;53.72;94304.28;5029492;28;20184;-83
2022/08/16 08:12:35;;;;;;;9.20;7.93;;;;;;;29.97;52.44;94317.16;5030005;28;20195;-80
2022/08/16 08:15:05;;;;;;;14.77;8.90;;;;;;;29.94;53.10;94313.19;5029344;28;20187;-82
2022/08/16 08:17:32;;;;;;;12.00;8.60;;;;;;;29.95;53.18;94314.75;5029622;28;20294;-82
2022/08/16 08:19:59;;;;;;;9.35;7.68;;;;;;;29.85;53.17;94293.72;5028707;28;20215;-83
2022/08/16 08:22:26;;;;;;;13.00;7.85;;;;;;;30.20;52.56;94308.66;5029165;28;20195;-79
2022/08/16 08:24:53;;;;;;;8.90;8.00;;;;;;;30.38;52.24;94303.84;5029646;28;20192;-84
2022/08/16 08:27:20;;;;;;;8.63;5.90;;;;;;;30.44;47.85;94311.47;5029483;28;20198;-81
2022/08/16 08:29:47;;;;;;;10.85;6.13;;;;;;;30.17;46.78;94282.03;5029196;28;20196;-81
2022/08/16 08:32:15;;;;;;;6.95;5.22;;;;;;;30.30;46.83;94307.03;5029055;28;20192;-82
2022/08/16 08:34:42;;;;;;;5.38;4.88;;;;;;;30.20;47.67;94302.59;5029045;28;20192;-81
2022/08/16 08:37:09;;;;;;;5.70;5.15;;;;;;;30.28;46.72;94302.03;5029332;28;20227;-81
2022/08/16 08:39:37;;;;;;;6.32;5.50;;;;;;;30.35;46.54;94301.72;5031681;28;20250;-82
2022/08/16 08:42:05;;;;;;;5.30;4.80;;;;;;;30.34;45.41;94310.72;5030469;28;20191;-81
2022/08/16 08:44:38;;;;;;;5.63;5.13;;;;;;;30.37;45.73;94324.16;5033138;28;20180;-81
2022/08/16 08:47:06;;;;;;;5.82;5.22;;;;;;;30.30;45.92;94304.41;5033913;28;20196;-83
2022/08/16 08:49:38;;;;;;;6.20;5.03;;;;;;;30.38;46.37;94320.47;5035178;28;20207;-82
2022/08/16 08:52:06;;;;;;;5.40;5.00;;;;;;;30.37;44.79;94308.31;5033585;28;20199;-83
2022/08/16 08:54:35;;;;;;;6.05;4.50;;;;;;;30.30;45.23;94314.94;5035299;28;20533;-82
2022/08/16 08:57:02;;;;;;;6.00;5.35;;;;;;;30.28;45.63;94317.09;5033579;28;20207;-83
2022/08/16 08:59:30;;;;;;;5.20;4.60;;;;;;;30.23;47.15;94307.34;5033224;28;20273;-84
2022/08/16 09:01:57;;;;;;;5.65;5.13;;;;;;;30.22;46.73;94311.03;5033159;28;20183;-83
2022/08/16 09:04:25;;;;;;;5.18;4.78;;;;;;;30.31;46.37;94314.69;5033206;28;20191;-84
2022/08/16 09:06:54;;;;;;;5.43;4.65;;;;;;;30.38;45.66;94309.13;5032932;28;20705;-81
2022/08/16 09:09:21;;;;;;;5.68;5.18;;;;;;;30.44;45.94;94302.75;5033566;28;20195;-81
2022/08/16 09:11:48;;;;;;;6.82;5.03;;;;;;;30.60;45.93;94298.19;5032744;28;20191;-83
2022/08/16 09:14:15;;;;;;;8.20;5.78;;;;;;;30.71;46.01;94307.63;5032938;28;20663;-84
2022/08/16 09:16:42;;;;;;;5.88;5.38;;;;;;;30.91;45.54;94317.31;5033190;28;20639;-83
2022/08/16 09:19:09;;;;;;;5.43;4.75;;;;;;;31.04;43.92;94313.25;5033035;28;20227;-82
2022/08/16 09:21:36;;;;;;;5.22;4.72;;;;;;;31.08;43.98;94317.72;5032500;28;20211;-83
2022/08/16 09:24:05;;;;;;;5.55;5.05;;;;;;;31.12;43.95;94317.97;5032685;28;20246;-84
2022/08/16 09:26:32;;;;;;;5.88;5.07;;;;;;;31.09;43.09;94310.56;5033925;28;20692;-83
2022/08/16 09:28:59;;;;;;;5.88;5.05;;;;;;;31.01;43.42;94311.19;5033466;28;20258;-83
2022/08/16 09:31:25;;;;;;;6.65;4.82;;;;;;;31.03;44.65;94317.75;5032944;28;20642;-81
2022/08/16 09:33:52;;;;;;;5.63;4.80;;;;;;;30.91;44.45;94283.75;5032624;28;20271;-84
2022/08/16 09:36:20;;;;;;;9.70;5.00;;;;;;;31.09;44.86;94314.03;5033292;28;20246;-83
2022/08/16 09:38:47;;;;;;;6.07;5.32;;;;;;;31.02;43.72;94313.53;5032076;28;20222;-83
2022/08/16 09:41:15;;;;;;;8.18;5.18;;;;;;;30.99;43.09;94306.94;5032555;28;20683;-82
2022/08/16 09:43:42;;;;;;;5.70;5.10;;;;;;;31.02;43.70;94300.34;5032594;28;20238;-83
2022/08/16 09:46:09;;;;;;;6.10;5.07;;;;;;;31.04;43.85;94300.81;5032883;28;20187;-83
2022/08/16 09:48:38;;;;;;;6.93;5.10;;;;;;;30.90;43.97;94300.66;5032109;28;20199;-83
2022/08/16 09:51:05;;;;;;;5.43;4.70;;;;;;;30.98;43.74;94313.28;5032332;28;20298;-84
2022/08/16 09:53:32;;;;;;;5.40;4.90;;;;;;;31.02;44.24;94300.34;5031495;28;20191;-84
2022/08/16 09:56:00;;;;;;;5.13;4.60;;;;;;;31.01;43.87;94300.63;5031467;28;20191;-83
2022/08/16 09:58:29;;;;;;;5.55;4.88;;;;;;;30.94;44.25;94306.97;5033052;28;20187;-83
2022/08/16 10:00:56;;;;;;;5.78;5.00;;;;;;;30.88;43.46;94297.53;5032275;28;20251;-83
2022/08/16 10:03:23;;;;;;;7.85;5.13;;;;;;;30.76;43.29;94270.66;5031316;28;20200;-83
2022/08/16 10:05:50;;;;;;;6.75;5.40;;;;;;;31.04;44.27;94305.31;5031795;28;20196;-84
2022/08/16 10:08:17;;;;;;;8.43;5.05;;;;;;;31.09;43.86;94311.38;5031624;28;20192;-82
2022/08/16 10:13:10;;;;;;;7.07;4.53;;;;;;;31.09;42.66;94311.38;5031719;28;20192;-84
2022/08/16 10:13:33;;;;;;;6.82;4.97;;;;;;;31.10;44.15;94301.59;5031773;28;20263;-83
2022/08/16 10:16:01;;;;;;;5.80;5.30;;;;;;;31.16;44.04;94300.50;5031459;28;20647;-83
2022/08/16 10:18:29;;;;;;;5.20;4.65;;;;;;;31.19;44.49;94303.38;5033060;28;20192;-83
2022/08/16 10:20:58;;;;;;;6.10;5.15;;;;;;;31.28;44.40;94305.44;5032401;28;20215;-81
2022/08/16 10:23:28;;;;;;;5.45;4.93;;;;;;;31.30;43.74;94293.53;5031037;28;20653;-82
2022/08/16 10:25:55;;;;;;;4.93;4.53;;;;;;;31.27;43.01;94293.28;5031333;28;20204;-82
2022/08/16 10:28:22;;;;;;;6.15;5.40;;;;;;;31.32;43.32;94296.69;5030791;28;20195;-83
2022/08/16 10:30:50;;;;;;;5.63;5.10;;;;;;;31.42;43.91;94293.16;5030999;28;20606;-83
2022/08/16 10:33:17;;;;;;;7.78;5.05;;;;;;;31.51;42.92;94299.44;5030700;28;20666;-82
2022/08/16 10:35:46;;;;;;;5.30;4.78;;;;;;;31.46;41.47;94289.69;5030660;28;20235;-82
2022/08/16 10:38:15;;;;;;;6.00;4.78;;;;;;;31.39;40.86;94299.00;5031078;28;20271;-83
2022/08/16 10:40:43;;;;;;;7.03;5.13;;;;;;;31.15;41.30;94269.84;5030371;28;20235;-83
2022/08/16 10:43:10;;;;;;;8.40;5.32;;;;;;;31.31;43.30;94308.34;5030835;28;20199;-82
2022/08/16 10:45:37;;;;;;;5.50;5.03;;;;;;;30.95;45.11;94291.91;5030191;28;20221;-81
2022/08/16 10:48:08;;;;;;;5.80;5.20;;;;;;;30.81;46.45;94297.03;5030380;28;20275;-81
2022/08/16 10:50:36;;;;;;;9.40;5.57;;;;;;;30.40;47.17;94262.16;5030364;28;20203;-83
2022/08/16 10:53:05;;;;;;;10.57;5.63;;;;;;;30.48;47.35;94304.59;5030447;28;20206;-85
2022/08/16 10:55:35;;;;;;;9.35;5.28;;;;;;;30.17;47.17;94276.75;5030114;28;20203;-84
2022/08/16 10:58:03;;;;;;;7.00;4.80;;;;;;;30.17;47.64;94298.63;5030426;28;20261;-82
2022/08/16 11:00:31;;;;;;;6.85;5.13;;;;;;;30.09;47.87;94303.66;5030384;28;20309;-81
2022/08/16 11:02:59;;;;;;;6.97;5.15;;;;;;;30.11;47.98;94306.81;5030525;28;20249;-81
2022/08/16 11:05:28;;;;;;;6.65;4.85;;;;;;;30.09;47.53;94308.94;5030410;28;20199;-83
2022/08/16 11:07:55;;;;;;;6.53;5.32;;;;;;;30.08;47.57;94305.50;5030588;28;20195;-83
2022/08/16 11:10:25;;;;;;;8.75;5.28;;;;;;;29.96;48.13;94303.16;5029991;28;20203;-83
2022/08/16 11:12:52;;;;;;;7.25;5.00;;;;;;;29.88;48.43;94305.56;5030168;28;20194;-82
2022/08/16 11:15:19;;;;;;;6.20;5.50;;;;;;;29.93;47.71;94302.94;5029940;28;20188;-81
2022/08/16 11:17:47;;;;;;;12.73;5.15;;;;;;;29.84;48.03;94294.00;5030294;28;20195;-81
2022/08/16 11:20:16;;;;;;;6.93;5.22;;;;;;;29.85;47.19;94298.19;5030237;28;20312;-83
2022/08/16 11:22:45;;;;;;;11.15;5.97;;;;;;;29.89;46.08;94299.25;5030994;28;20203;-82
2022/08/16 11:25:14;;;;;;;8.60;5.30;;;;;;;29.94;45.55;94296.59;5031573;28;20184;-82